Time;durP1;ratioP1;P1;durP2;ratioP2;P2;SDS_P1;SDS_P2;PMS_P1;PMS_P2;Temp;Humidity;BMP_temperature;BMP_pressure;BME280_temperature;BME280_humidity;BME280_pressure;Samples;Min_cycle;Max_cycle;Signal;HPM_P1;HPM_P2
2022/08/04 00:00:32;;;;;;;8.50;3.80;;;24.40;99.90;;;;;;5028425;28;20413;-65
2022/08/04 00:03:18;;;;;;;9.17;3.80;;;24.30;99.90;;;;;;5014153;28;20899;-64
2022/08/04 00:05:59;;;;;;;9.93;4.33;;;24.30;99.90;;;;;;5010151;28;20458;-66
2022/08/04 00:08:55;;;;;;;11.70;3.93;;;24.30;99.90;;;;;;5009114;28;20484;-66
2022/08/04 00:11:22;;;;;;;10.43;3.90;;;24.30;99.90;;;;;;5010052;28;20410;-65
2022/08/04 00:14:05;;;;;;;8.27;3.90;;;24.30;99.90;;;;;;5010745;28;20399;-65
2022/08/04 00:16:41;;;;;;;9.23;4.00;;;24.30;99.90;;;;;;4990683;28;20508;-65
2022/08/04 00:19:17;;;;;;;9.40;4.63;;;24.30;99.90;;;;;;4989433;28;20837;-65
2022/08/04 00:21:50;;;;;;;9.33;3.57;;;24.20;99.90;;;;;;4992436;28;20400;-64
2022/08/04 00:24:17;;;;;;;12.60;3.73;;;24.30;99.90;;;;;;5009795;28;20443;-64
2022/08/04 00:26:43;;;;;;;6.70;3.53;;;24.30;99.90;;;;;;5009616;28;20465;-65
2022/08/04 00:29:09;;;;;;;4.80;3.70;;;24.30;99.90;;;;;;5009404;28;20407;-63
2022/08/04 00:31:35;;;;;;;7.07;3.80;;;24.40;99.90;;;;;;5009994;28;20514;-63
2022/08/04 00:34:03;;;;;;;6.53;3.37;;;24.40;99.90;;;;;;5010009;28;20411;-65
2022/08/04 00:36:30;;;;;;;11.00;3.90;;;24.40;99.90;;;;;;5009334;28;20465;-65
2022/08/04 00:38:57;;;;;;;7.20;3.43;;;24.30;99.90;;;;;;5008923;28;20453;-64
2022/08/04 00:41:32;;;;;;;6.37;4.07;;;24.10;99.90;;;;;;5010212;28;20395;-64
2022/08/04 00:43:57;;;;;;;5.73;3.30;;;24.10;99.90;;;;;;5009840;28;21046;-65
2022/08/04 00:46:57;;;;;;;11.10;4.17;;;24.10;99.90;;;;;;5009518;28;20521;-65
2022/08/04 00:49:42;;;;;;;12.03;4.00;;;24.10;99.90;;;;;;5009454;28;20164;-66
2022/08/04 00:52:49;;;;;;;14.13;4.57;;;24.00;99.90;;;;;;5009186;28;20482;-65
2022/08/04 00:55:21;;;;;;;5.03;3.63;;;24.10;99.90;;;;;;4965812;28;20511;-65
2022/08/04 00:58:12;;;;;;;11.03;3.60;;;24.00;99.90;;;;;;5008820;28;20585;-65
2022/08/04 01:01:03;;;;;;;5.57;3.30;;;24.10;99.90;;;;;;5029085;28;21132;-63
2022/08/04 01:03:44;;;;;;;9.93;4.13;;;24.10;99.90;;;;;;4985108;28;20423;-65
2022/08/04 01:06:27;;;;;;;5.53;3.70;;;24.10;99.90;;;;;;4989905;28;20478;-65
2022/08/04 01:09:11;;;;;;;5.30;3.77;;;24.10;99.90;;;;;;4989429;28;20432;-65
2022/08/04 01:12:08;;;;;;;10.27;4.33;;;24.10;99.90;;;;;;5006488;28;20403;-65
2022/08/04 01:14:39;;;;;;;7.03;4.07;;;24.10;99.90;;;;;;5009607;28;20494;-65
2022/08/04 01:17:46;;;;;;;4.30;3.60;;;24.00;99.90;;;;;;5008979;28;20530;-64
2022/08/04 01:20:20;;;;;;;4.83;3.80;;;24.00;99.90;;;;;;5000738;28;20426;-65
2022/08/04 01:23:16;;;;;;;6.97;3.93;;;23.90;99.90;;;;;;5008908;28;20577;-65
2022/08/04 01:26:19;;;;;;;4.67;3.67;;;23.80;99.90;;;;;;5008839;28;20534;-65
2022/08/04 01:29:04;;;;;;;5.27;3.03;;;23.90;99.90;;;;;;5008845;28;20486;-64
2022/08/04 01:31:42;;;;;;;6.90;3.30;;;23.80;99.90;;;;;;5009820;28;20398;-65
2022/08/04 01:34:11;;;;;;;4.77;3.87;;;23.80;99.90;;;;;;5009517;28;20386;-65
2022/08/04 01:36:52;;;;;;;8.50;3.87;;;23.80;99.90;;;;;;5008976;28;20426;-64
2022/08/04 01:42:04;;;;;;;6.23;3.70;;;23.60;99.90;;;;;;5009555;28;20382;-65
2022/08/04 01:44:32;;;;;;;7.00;3.80;;;23.60;99.90;;;;;;5009084;28;20447;-65
2022/08/04 01:47:00;;;;;;;8.03;3.63;;;23.60;99.90;;;;;;5008971;28;20788;-65
2022/08/04 01:49:29;;;;;;;8.20;4.60;;;23.60;99.90;;;;;;5009514;28;20517;-64
2022/08/04 01:51:55;;;;;;;6.40;3.10;;;23.70;99.90;;;;;;5012463;28;20417;-64
2022/08/04 01:54:22;;;;;;;8.80;6.13;;;23.60;99.90;;;;;;5012866;28;20983;-65
2022/08/04 01:56:49;;;;;;;11.30;3.93;;;23.60;99.90;;;;;;5012416;28;20938;-65
2022/08/04 01:59:19;;;;;;;14.27;3.43;;;23.60;99.90;;;;;;5020258;28;20418;-65
2022/08/04 02:01:46;;;;;;;10.90;4.00;;;23.60;99.90;;;;;;5026281;28;20844;-65
2022/08/04 02:04:17;;;;;;;6.43;3.57;;;23.60;99.90;;;;;;5012645;28;20407;-65
2022/08/04 02:07:10;;;;;;;5.17;3.60;;;23.60;99.90;;;;;;5011935;28;20442;-65
2022/08/04 02:10:01;;;;;;;8.00;3.80;;;23.60;99.90;;;;;;5012214;28;20738;-65
2022/08/04 02:13:08;;;;;;;5.03;3.47;;;23.50;99.90;;;;;;5012386;28;20479;-65
2022/08/04 02:16:00;;;;;;;5.53;3.53;;;23.40;99.90;;;;;;5011873;28;20506;-65
2022/08/04 02:18:49;;;;;;;11.50;3.77;;;23.20;99.90;;;;;;4983350;28;20419;-64
2022/08/04 02:21:18;;;;;;;5.50;3.00;;;23.20;99.90;;;;;;5011952;28;20411;-64
2022/08/04 02:23:50;;;;;;;4.63;3.63;;;23.20;99.90;;;;;;5011861;28;20412;-63
2022/08/04 02:26:18;;;;;;;6.83;3.40;;;23.10;99.90;;;;;;5011596;28;20483;-65
2022/08/04 02:28:51;;;;;;;4.33;3.10;;;23.00;99.90;;;;;;5011349;28;20399;-65
2022/08/04 02:31:29;;;;;;;9.83;4.57;;;23.00;99.90;;;;;;5011966;28;20450;-64
2022/08/04 02:34:07;;;;;;;5.57;3.30;;;22.90;99.90;;;;;;5012142;28;20391;-65
2022/08/04 02:36:39;;;;;;;7.47;3.57;;;23.00;99.90;;;;;;5011718;28;21006;-64
2022/08/04 02:39:07;;;;;;;4.87;4.00;;;23.00;99.90;;;;;;5010938;28;20457;-64
2022/08/04 02:41:34;;;;;;;9.57;5.00;;;22.90;99.90;;;;;;5011728;28;20894;-66
2022/08/04 02:44:04;;;;;;;9.80;4.20;;;22.90;99.90;;;;;;5012019;28;20409;-65
2022/08/04 02:46:32;;;;;;;5.13;3.60;;;22.90;99.90;;;;;;5012194;28;20510;-65
2022/08/04 02:49:00;;;;;;;5.97;3.60;;;22.90;99.90;;;;;;5011247;28;20433;-65
2022/08/04 02:51:33;;;;;;;6.13;3.60;;;22.80;99.90;;;;;;5010864;28;20463;-65
2022/08/04 02:54:02;;;;;;;19.47;4.60;;;22.80;99.90;;;;;;5011467;28;20408;-63
2022/08/04 02:56:30;;;;;;;10.80;4.43;;;22.70;99.90;;;;;;5011502;28;20447;-65
2022/08/04 02:59:05;;;;;;;12.53;4.87;;;22.80;99.90;;;;;;5016637;28;20427;-64
2022/08/04 03:01:32;;;;;;;5.97;4.60;;;22.60;99.90;;;;;;5027216;28;20457;-65
2022/08/04 03:04:07;;;;;;;5.20;3.33;;;22.90;99.90;;;;;;5011855;28;20617;-65
2022/08/04 03:06:51;;;;;;;7.07;3.47;;;23.10;99.90;;;;;;5011324;28;20819;-65
2022/08/04 03:09:53;;;;;;;11.30;4.83;;;22.80;99.90;;;;;;5011087;28;20564;-64
2022/08/04 03:12:37;;;;;;;5.47;3.90;;;22.60;99.90;;;;;;4991735;28;20502;-66
2022/08/04 03:15:14;;;;;;;6.07;4.07;;;22.50;99.90;;;;;;5001415;28;20943;-65
2022/08/04 03:18:07;;;;;;;11.10;5.83;;;22.30;99.90;;;;;;5010464;28;20523;-65
2022/08/04 03:20:36;;;;;;;7.30;4.00;;;22.30;99.90;;;;;;5011063;28;20403;-64
2022/08/04 03:23:20;;;;;;;15.53;5.10;;;22.40;99.90;;;;;;5010342;28;20446;-64
2022/08/04 03:25:59;;;;;;;27.60;5.00;;;22.50;99.90;;;;;;5010778;28;20439;-65
2022/08/04 03:28:34;;;;;;;6.20;3.60;;;22.50;99.90;;;;;;5010434;28;20411;-65
2022/08/04 03:31:08;;;;;;;17.10;4.50;;;22.30;99.90;;;;;;5011097;28;20987;-65
2022/08/04 03:34:01;;;;;;;11.00;4.13;;;22.30;99.90;;;;;;5011404;28;20390;-64
2022/08/04 03:36:57;;;;;;;15.33;5.23;;;22.40;99.90;;;;;;5010737;28;20427;-64
2022/08/04 03:40:12;;;;;;;18.20;5.50;;;22.40;99.90;;;;;;5010526;28;20402;-64
2022/08/04 03:42:44;;;;;;;21.23;5.20;;;22.50;99.90;;;;;;5010903;28;20415;-64
2022/08/04 03:45:45;;;;;;;16.87;4.77;;;22.40;99.90;;;;;;5010843;28;20462;-65
2022/08/04 03:48:16;;;;;;;13.53;4.00;;;22.40;99.90;;;;;;4929823;29;20582;-65
2022/08/04 03:54:13;;;;;;;12.23;4.43;;;22.30;99.90;;;;;;5010491;28;20406;-64
2022/08/04 03:57:34;;;;;;;13.67;4.90;;;22.30;99.90;;;;;;5010625;28;20419;-66
2022/08/04 04:00:18;;;;;;;17.83;5.03;;;22.30;99.90;;;;;;5022490;28;20425;-65
2022/08/04 04:03:09;;;;;;;12.90;4.67;;;22.40;99.90;;;;;;5016616;28;20514;-64
2022/08/04 04:05:53;;;;;;;16.87;4.53;;;22.30;99.90;;;;;;5010230;28;20465;-63
2022/08/04 04:08:40;;;;;;;8.60;4.00;;;22.40;99.90;;;;;;5009602;28;20403;-63
2022/08/04 04:11:26;;;;;;;13.40;4.17;;;22.40;99.90;;;;;;5010232;28;20464;-65
2022/08/04 04:14:03;;;;;;;8.70;4.50;;;22.30;99.90;;;;;;5009780;28;20442;-65
2022/08/04 04:17:00;;;;;;;19.10;4.40;;;22.40;99.90;;;;;;5010108;28;20845;-64
2022/08/04 04:19:44;;;;;;;40.17;7.57;;;22.40;99.90;;;;;;4981284;28;20510;-65
2022/08/04 04:22:38;;;;;;;15.00;4.50;;;22.40;99.90;;;;;;5009668;28;20411;-64
2022/08/04 04:25:23;;;;;;;21.80;6.20;;;22.40;99.90;;;;;;5008605;28;20455;-65
2022/08/04 04:28:20;;;;;;;23.17;6.63;;;22.40;99.90;;;;;;5003522;28;20533;-66
2022/08/04 04:31:05;;;;;;;22.30;5.57;;;22.40;99.90;;;;;;4994777;28;20431;-64
2022/08/04 04:33:50;;;;;;;14.60;5.10;;;22.40;99.90;;;;;;5008402;28;20534;-66
2022/08/04 04:36:35;;;;;;;28.07;6.23;;;22.40;99.90;;;;;;5009661;28;20525;-62
2022/08/04 04:39:18;;;;;;;17.53;5.57;;;22.50;99.90;;;;;;5008349;28;20423;-64
2022/08/04 04:42:05;;;;;;;31.83;6.10;;;22.50;99.90;;;;;;5004640;28;20403;-63
2022/08/04 04:44:44;;;;;;;19.73;5.67;;;22.60;99.90;;;;;;5007650;28;20457;-65
2022/08/04 04:47:37;;;;;;;16.37;6.03;;;22.60;99.90;;;;;;5008125;28;20479;-66
2022/08/04 04:50:33;;;;;;;8.97;4.20;;;22.60;99.90;;;;;;5005750;28;20412;-65
2022/08/04 04:53:29;;;;;;;6.37;3.87;;;22.60;99.90;;;;;;5002819;28;20880;-67
2022/08/04 04:56:04;;;;;;;37.13;6.90;;;23.50;99.90;;;;;;5000940;28;20922;-65
2022/08/04 04:58:33;;;;;;;23.50;6.00;;;24.10;99.90;;;;;;5005225;28;20973;-66
2022/08/04 05:01:28;;;;;;;18.77;5.50;;;24.50;99.90;;;;;;5005464;28;20423;-66
2022/08/04 05:04:17;;;;;;;45.40;6.30;;;24.90;99.90;;;;;;5004800;28;20427;-66
2022/08/04 05:07:29;;;;;;;15.30;4.00;;;25.30;99.90;;;;;;5006238;28;20844;-66
2022/08/04 05:10:12;;;;;;;6.03;4.37;;;25.50;99.90;;;;;;4982081;28;20546;-66
2022/08/04 05:12:58;;;;;;;17.43;5.17;;;25.50;99.90;;;;;;5004051;28;20472;-66
2022/08/04 05:15:29;;;;;;;17.90;4.20;;;25.60;99.90;;;;;;5006174;28;20419;-64
2022/08/04 05:17:57;;;;;;;42.60;7.27;;;25.30;99.90;;;;;;5005882;28;20424;-64
2022/08/04 05:20:36;;;;;;;31.43;6.77;;;25.00;99.90;;;;;;5005624;28;20506;-65
2022/08/04 05:23:17;;;;;;;41.07;6.67;;;25.00;99.90;;;;;;5005631;28;20422;-61
2022/08/04 05:26:00;;;;;;;11.73;4.60;;;25.30;99.90;;;;;;5007472;28;20454;-64
2022/08/04 05:28:47;;;;;;;22.20;5.17;;;25.60;99.90;;;;;;5008651;28;20510;-64
2022/08/04 05:31:32;;;;;;;36.67;7.43;;;25.80;99.90;;;;;;5008692;28;20419;-61
2022/08/04 05:34:08;;;;;;;33.87;7.17;;;25.90;99.90;;;;;;5004733;28;20429;-61
2022/08/04 05:36:41;;;;;;;18.33;5.07;;;25.90;99.90;;;;;;5006492;28;20939;-63
2022/08/04 05:39:20;;;;;;;15.13;5.13;;;25.90;99.90;;;;;;5009086;28;20403;-63
2022/08/04 05:41:49;;;;;;;29.10;6.27;;;25.90;99.90;;;;;;5003742;28;20454;-63
2022/08/04 05:44:16;;;;;;;43.83;7.63;;;26.00;99.90;;;;;;5009343;28;20482;-61
2022/08/04 05:46:46;;;;;;;29.50;8.37;;;26.20;99.90;;;;;;5008740;28;20469;-61
2022/08/04 05:49:12;;;;;;;30.40;5.87;;;26.30;99.90;;;;;;5009402;28;20419;-64
2022/08/04 05:51:39;;;;;;;10.57;5.23;;;26.40;99.90;;;;;;5009329;28;20407;-63
2022/08/04 05:54:05;;;;;;;17.57;4.87;;;26.70;99.90;;;;;;5010396;28;20902;-63
2022/08/04 05:56:33;;;;;;;9.00;4.70;;;26.80;99.90;;;;;;5007814;28;20506;-64
2022/08/04 05:59:01;;;;;;;23.30;5.57;;;26.70;99.90;;;;;;5009614;28;20430;-62
2022/08/04 06:01:29;;;;;;;8.73;5.33;;;26.50;99.90;;;;;;5009905;28;20395;-63
2022/08/04 06:04:00;;;;;;;12.60;5.20;;;26.60;99.90;;;;;;5010756;28;20402;-63
2022/08/04 06:06:26;;;;;;;5.60;4.90;;;26.70;99.90;;;;;;5009525;28;20532;-62
2022/08/04 06:08:54;;;;;;;16.30;7.70;;;26.50;99.90;;;;;;5009751;28;20422;-63
2022/08/04 06:11:21;;;;;;;5.30;4.80;;;26.40;99.90;;;;;;5009616;28;20426;-63
2022/08/04 06:13:52;;;;;;;5.27;4.77;;;26.40;99.90;;;;;;5010193;28;20506;-63
2022/08/04 06:16:22;;;;;;;21.07;6.30;;;26.30;99.90;;;;;;4990766;28;20435;-62
2022/08/04 06:18:52;;;;;;;39.00;7.17;;;26.70;99.90;;;;;;4990503;28;20404;-65
2022/08/04 06:21:25;;;;;;;13.55;5.95;;;26.90;99.90;;;;;;4998392;28;20426;-64
2022/08/04 06:23:53;;;;;;;32.63;6.00;;;27.10;99.90;;;;;;5010054;28;20247;-64
2022/08/04 06:26:20;;;;;;;8.83;4.70;;;27.20;99.90;;;;;;5009836;28;20466;-65
2022/08/04 06:28:49;;;;;;;10.37;4.83;;;27.10;99.90;;;;;;5009220;28;20442;-65
2022/08/04 06:31:41;;;;;;;89.10;11.17;;;27.40;99.90;;;;;;5012206;28;20442;-62
2022/08/04 06:34:10;;;;;;;93.77;12.87;;;27.60;99.90;;;;;;5012082;28;20438;-62
2022/08/04 06:36:39;;;;;;;12.03;4.93;;;27.60;99.90;;;;;;5010783;28;20819;-63
2022/08/04 06:39:06;;;;;;;13.80;5.80;;;27.40;99.90;;;;;;5011273;28;20929;-61
2022/08/04 06:41:33;;;;;;;14.70;5.70;;;27.30;99.90;;;;;;5012122;28;20434;-62
2022/08/04 06:44:02;;;;;;;15.03;5.73;;;27.10;99.90;;;;;;5011838;28;20446;-63
2022/08/04 06:46:29;;;;;;;19.93;6.83;;;27.40;99.90;;;;;;5011242;28;20455;-62
2022/08/04 06:48:56;;;;;;;32.70;6.27;;;27.40;99.90;;;;;;5011257;28;20710;-64
2022/08/04 06:51:23;;;;;;;14.40;5.83;;;27.70;99.90;;;;;;5010270;28;20426;-62
2022/08/04 06:53:49;;;;;;;6.60;5.27;;;28.10;99.90;;;;;;5011950;28;20557;-63
2022/08/04 06:56:18;;;;;;;15.87;5.80;;;27.00;99.90;;;;;;5011841;28;20522;-63
2022/08/04 06:58:46;;;;;;;18.13;6.00;;;27.10;99.90;;;;;;5007035;28;20438;-61
2022/08/04 07:01:17;;;;;;;10.47;6.03;;;27.70;99.90;;;;;;4994055;28;20412;-64
2022/08/04 07:03:43;;;;;;;21.03;6.87;;;28.20;99.90;;;;;;5010936;28;20426;-61
2022/08/04 07:06:08;;;;;;;6.57;5.40;;;28.60;99.90;;;;;;5010575;28;20486;-64
2022/08/04 07:08:35;;;;;;;9.90;5.23;;;28.10;99.40;;;;;;5009781;28;20528;-65
2022/08/04 07:11:01;;;;;;;11.13;5.73;;;27.90;99.70;;;;;;5009647;28;20175;-63
2022/08/04 07:13:30;;;;;;;169.40;20.87;;;27.90;99.70;;;;;;5011210;28;20405;-62
2022/08/04 07:15:57;;;;;;;11.83;5.30;;;28.30;99.80;;;;;;5011381;28;20760;-64
2022/08/04 07:18:23;;;;;;;9.97;4.60;;;28.30;99.00;;;;;;5010414;28;20457;-63
2022/08/04 07:20:49;;;;;;;15.07;6.43;;;28.30;99.90;;;;;;5010830;28;20411;-60
2022/08/04 07:23:16;;;;;;;14.50;5.60;;;28.30;98.80;;;;;;5010268;28;20422;-60
2022/08/04 07:25:43;;;;;;;9.13;6.00;;;28.30;98.00;;;;;;5011886;28;20439;-62
2022/08/04 07:28:09;;;;;;;14.63;6.40;;;28.30;97.50;;;;;;5010878;28;20478;-63
2022/08/04 07:30:35;;;;;;;20.37;6.70;;;28.80;97.60;;;;;;5010798;28;20442;-64
2022/08/04 07:33:02;;;;;;;20.67;6.20;;;29.20;97.30;;;;;;5006714;28;20172;-64
2022/08/04 07:35:28;;;;;;;19.80;5.27;;;29.30;96.90;;;;;;5010610;28;20430;-62
2022/08/04 07:37:54;;;;;;;20.57;6.37;;;29.60;96.00;;;;;;5009557;28;21143;-63
2022/08/04 07:40:20;;;;;;;24.53;6.57;;;29.10;94.90;;;;;;5010904;28;20449;-61
2022/08/04 07:42:46;;;;;;;36.67;7.70;;;29.60;94.30;;;;;;5011311;28;20176;-62
2022/08/04 07:45:16;;;;;;;20.67;6.60;;;29.50;93.50;;;;;;5011223;28;20802;-62
2022/08/04 07:47:42;;;;;;;36.50;7.63;;;29.30;93.10;;;;;;5010490;28;20931;-61
2022/08/04 07:50:11;;;;;;;10.60;5.80;;;29.50;92.40;;;;;;5010512;28;20529;-63
2022/08/04 07:52:38;;;;;;;8.07;4.70;;;29.60;92.30;;;;;;5010582;28;20567;-62
2022/08/04 07:55:04;;;;;;;18.00;6.53;;;29.50;91.90;;;;;;5010751;28;20449;-63
2022/08/04 07:57:30;;;;;;;6.40;4.40;;;29.30;90.60;;;;;;5010385;28;20457;-62
2022/08/04 07:59:56;;;;;;;8.87;5.53;;;29.20;91.00;;;;;;4989533;28;20412;-61
2022/08/04 08:02:22;;;;;;;42.70;7.10;;;29.50;91.00;;;;;;5001646;28;20230;-59
2022/08/04 08:04:49;;;;;;;35.00;6.50;;;30.00;91.50;;;;;;5010302;28;20204;-61
2022/08/04 08:07:17;;;;;;;9.30;5.20;;;30.40;90.40;;;;;;5009405;28;20443;-63
2022/08/04 08:09:43;;;;;;;6.37;5.20;;;30.10;85.70;;;;;;5010105;28;21221;-62
2022/08/04 08:12:10;;;;;;;26.37;5.60;;;29.90;90.10;;;;;;5010960;28;20512;-64
2022/08/04 08:14:36;;;;;;;19.27;6.27;;;29.70;82.30;;;;;;5010638;28;20188;-63
2022/08/04 08:17:03;;;;;;;6.07;5.40;;;29.60;81.40;;;;;;5010070;28;20460;-64
2022/08/04 08:19:34;;;;;;;8.83;5.27;;;29.50;81.10;;;;;;5010139;28;20410;-64
2022/08/04 08:22:00;;;;;;;21.87;7.00;;;29.90;80.00;;;;;;5009993;28;20904;-64
2022/08/04 08:24:28;;;;;;;13.53;5.83;;;30.30;79.20;;;;;;5009935;28;20429;-64
2022/08/04 08:26:55;;;;;;;16.73;6.00;;;30.60;78.70;;;;;;5009777;28;20462;-64
2022/08/04 08:29:22;;;;;;;13.47;6.33;;;30.70;75.10;;;;;;5007772;28;20426;-64
2022/08/04 08:31:48;;;;;;;14.33;6.47;;;29.90;71.20;;;;;;5009774;28;20422;-62
2022/08/04 08:34:14;;;;;;;25.03;6.90;;;29.90;72.80;;;;;;5010759;28;20498;-62
2022/08/04 08:36:51;;;;;;;19.80;6.40;;;30.20;72.60;;;;;;5009889;28;20453;-64
2022/08/04 08:39:27;;;;;;;21.73;6.57;;;30.80;74.20;;;;;;5010936;28;20823;-64
2022/08/04 08:42:08;;;;;;;21.43;7.43;;;30.40;70.90;;;;;;5014489;28;20903;-63
2022/08/04 08:44:48;;;;;;;25.03;7.27;;;30.30;70.50;;;;;;5012520;28;20517;-65
2022/08/04 08:47:36;;;;;;;7.63;5.53;;;29.90;69.40;;;;;;5010252;28;21162;-65
2022/08/04 08:50:23;;;;;;;17.50;5.63;;;30.40;72.20;;;;;;4991237;28;20391;-65
2022/08/04 08:53:08;;;;;;;9.27;5.13;;;31.00;71.40;;;;;;5005262;28;20457;-64
2022/08/04 08:56:12;;;;;;;18.20;5.73;;;31.30;69.70;;;;;;5009814;28;20981;-65
2022/08/04 08:58:53;;;;;;;30.03;7.07;;;31.70;66.70;;;;;;5007777;28;20509;-64
2022/08/04 09:01:49;;;;;;;28.63;6.83;;;31.60;62.70;;;;;;5009516;28;20803;-64
2022/08/04 09:04:31;;;;;;;10.57;5.57;;;31.60;61.90;;;;;;5010207;28;20517;-65
2022/08/04 09:07:31;;;;;;;43.07;8.40;;;31.60;61.20;;;;;;5009380;28;21078;-66
2022/08/04 09:10:19;;;;;;;34.23;8.63;;;31.50;61.80;;;;;;4998156;28;20441;-65
2022/08/04 09:13:26;;;;;;;6.53;4.47;;;31.90;60.60;;;;;;5011303;28;20506;-66
2022/08/04 09:16:13;;;;;;;11.80;4.30;;;31.80;59.00;;;;;;4969546;28;20983;-65
2022/08/04 09:18:55;;;;;;;29.13;6.93;;;31.40;58.10;;;;;;4968569;28;20837;-65
2022/08/04 09:21:36;;;;;;;16.23;6.13;;;31.30;58.60;;;;;;5000051;28;21004;-62
2022/08/04 09:24:21;;;;;;;16.17;4.90;;;31.50;59.10;;;;;;5011899;28;20778;-65
2022/08/04 09:27:14;;;;;;;31.10;8.00;;;31.80;80.00;;;;;;5009242;28;20950;-64
2022/08/04 09:29:47;;;;;;;5.70;4.33;;;31.40;60.00;;;;;;5008848;28;20419;-64
2022/08/04 09:32:36;;;;;;;8.03;5.10;;;31.10;58.70;;;;;;5009668;28;20422;-65
2022/08/04 09:35:10;;;;;;;5.67;4.90;;;30.80;59.10;;;;;;5009476;28;20391;-64
2022/08/04 09:37:59;;;;;;;5.67;4.60;;;30.50;59.00;;;;;;5008625;28;20446;-64
2022/08/04 09:40:31;;;;;;;9.80;5.00;;;30.40;60.40;;;;;;4962358;28;20450;-64
2022/08/04 09:43:31;;;;;;;6.10;5.43;;;30.30;62.60;;;;;;5009040;28;20414;-63
2022/08/04 09:46:13;;;;;;;12.13;5.57;;;30.40;64.10;;;;;;5007190;28;20971;-64
2022/08/04 09:48:43;;;;;;;12.67;6.30;;;31.00;68.80;;;;;;5005935;28;20426;-65
2022/08/04 09:51:39;;;;;;;20.27;6.90;;;31.50;68.00;;;;;;5009955;28;20518;-64
2022/08/04 09:54:37;;;;;;;19.10;6.27;;;31.90;68.40;;;;;;4993195;28;20464;-65
2022/08/04 09:57:19;;;;;;;10.97;5.00;;;32.30;67.00;;;;;;4993640;28;20434;-64
2022/08/04 10:00:06;;;;;;;11.93;5.40;;;32.50;63.40;;;;;;5009824;28;20496;-65
2022/08/04 10:02:37;;;;;;;9.93;5.10;;;32.30;62.30;;;;;;5009745;28;20911;-65
2022/08/04 10:05:09;;;;;;;5.10;4.60;;;32.20;61.10;;;;;;5009338;28;20469;-64
2022/08/04 10:07:56;;;;;;;6.60;5.13;;;32.00;59.20;;;;;;5006017;28;20460;-64
2022/08/04 10:10:47;;;;;;;5.50;5.10;;;32.10;60.80;;;;;;5004540;28;20488;-65
2022/08/04 10:13:43;;;;;;;14.47;6.00;;;32.30;60.20;;;;;;4993907;28;20426;-65
2022/08/04 10:16:26;;;;;;;10.43;4.80;;;32.40;59.00;;;;;;5012412;28;20199;-65
2022/08/04 10:19:04;;;;;;;8.30;4.90;;;32.60;64.50;;;;;;5011548;28;20187;-66
2022/08/04 10:21:49;;;;;;;5.80;4.83;;;32.80;56.50;;;;;;5011605;28;20175;-64
2022/08/04 10:24:28;;;;;;;6.13;4.93;;;32.90;55.90;;;;;;5009546;28;20184;-65
2022/08/04 10:27:17;;;;;;;23.83;6.37;;;32.90;54.90;;;;;;5011532;28;20742;-65
2022/08/04 10:29:45;;;;;;;8.53;5.33;;;33.00;53.20;;;;;;5010785;28;20295;-64
2022/08/04 10:32:40;;;;;;;11.73;5.73;;;32.50;51.90;;;;;;5011185;28;20167;-65
2022/08/04 10:35:12;;;;;;;5.00;4.50;;;32.20;52.20;;;;;;4928047;28;20656;-65
2022/08/04 10:38:09;;;;;;;7.23;4.30;;;31.90;51.00;;;;;;5012310;28;21003;-64
2022/08/04 10:41:00;;;;;;;14.23;5.10;;;31.90;52.10;;;;;;5011773;28;20180;-65
2022/08/04 10:43:58;;;;;;;13.43;5.70;;;31.80;51.70;;;;;;5005002;28;20198;-65
2022/08/04 10:46:41;;;;;;;13.53;5.83;;;31.90;51.30;;;;;;5012112;28;20553;-65
2022/08/04 10:49:13;;;;;;;8.83;5.00;;;32.10;49.70;;;;;;5014135;28;20172;-65
2022/08/04 10:52:20;;;;;;;6.90;4.30;;;32.20;49.10;;;;;;5006101;28;20179;-65
2022/08/04 10:54:53;;;;;;;4.83;4.33;;;32.10;47.70;;;;;;4924174;29;20426;-65
2022/08/04 10:57:42;;;;;;;22.87;6.07;;;31.80;45.60;;;;;;4917091;29;20459;-65
2022/08/04 11:00:18;;;;;;;11.93;4.87;;;32.00;45.80;;;;;;4983651;28;20434;-63
2022/08/04 11:02:56;;;;;;;5.07;4.50;;;32.20;44.80;;;;;;5009168;28;20185;-65
2022/08/04 11:05:28;;;;;;;15.80;4.97;;;32.00;43.70;;;;;;5012941;28;20442;-62
2022/08/04 11:08:00;;;;;;;10.30;5.20;;;31.80;43.10;;;;;;5011144;28;20451;-64
2022/08/04 11:10:31;;;;;;;4.93;4.50;;;32.10;44.40;;;;;;5011882;28;20183;-64
2022/08/04 11:13:09;;;;;;;5.13;4.30;;;32.10;41.10;;;;;;5011752;28;20406;-65
2022/08/04 11:15:43;;;;;;;13.90;4.90;;;32.00;37.80;;;;;;5012092;28;20263;-64
2022/08/04 11:18:22;;;;;;;17.90;5.13;;;31.90;36.40;;;;;;5010840;28;20199;-64
2022/08/04 11:21:09;;;;;;;6.53;5.00;;;32.10;35.90;;;;;;5012437;28;20258;-64
2022/08/04 11:23:42;;;;;;;6.60;4.63;;;32.00;33.40;;;;;;5010360;28;20430;-63
2022/08/04 11:26:28;;;;;;;16.03;5.23;;;32.40;33.40;;;;;;5011771;28;21056;-65
2022/08/04 11:29:25;;;;;;;5.40;4.47;;;32.70;33.00;;;;;;5007302;28;20414;-65
2022/08/04 11:31:54;;;;;;;9.30;5.50;;;32.80;31.00;;;;;;5011103;28;20258;-65
2022/08/04 11:34:26;;;;;;;11.07;4.37;;;32.70;29.30;;;;;;5006773;28;20600;-64
2022/08/04 11:37:27;;;;;;;4.20;3.90;;;32.80;28.90;;;;;;5011286;28;20496;-64
2022/08/04 11:40:01;;;;;;;14.13;3.77;;;33.00;28.40;;;;;;5009067;28;20175;-63
2022/08/04 11:42:34;;;;;;;6.80;3.17;;;32.90;22.10;;;;;;5010780;28;20414;-65
2022/08/04 11:45:06;;;;;;;6.10;3.57;;;32.80;18.60;;;;;;5010944;28;20195;-65
2022/08/04 11:47:40;;;;;;;5.20;3.50;;;32.90;19.00;;;;;;5009786;28;20442;-63
2022/08/04 11:50:24;;;;;;;7.70;3.70;;;32.90;18.00;;;;;;5010224;28;20167;-64
2022/08/04 11:52:53;;;;;;;4.70;3.30;;;32.70;16.80;;;;;;5007917;28;20171;-64
2022/08/04 11:55:21;;;;;;;3.97;3.57;;;32.60;15.30;;;;;;5010183;28;20261;-63
2022/08/04 11:57:48;;;;;;;4.10;3.37;;;32.50;14.80;;;;;;5010529;28;20541;-65
2022/08/04 12:00:18;;;;;;;9.90;3.97;;;32.70;13.70;;;;;;5008650;28;20202;-65
2022/08/04 12:02:53;;;;;;;17.87;5.37;;;32.90;12.90;;;;;;5012021;28;20172;-63
2022/08/04 12:05:26;;;;;;;13.17;3.70;;;33.10;21.10;;;;;;5009902;28;20223;-65
2022/08/04 12:07:58;;;;;;;10.53;3.20;;;33.10;9.30;;;;;;5009492;28;20211;-63
2022/08/04 12:10:39;;;;;;;6.07;3.07;;;33.10;8.20;;;;;;5009995;28;20187;-62
2022/08/04 12:13:31;;;;;;;7.37;3.57;;;33.10;6.10;;;;;;5011605;28;20635;-63
2022/08/04 12:16:26;;;;;;;12.53;3.93;;;32.80;4.50;;;;;;5008688;28;20852;-65
2022/08/04 12:19:02;;;;;;;4.17;2.93;;;32.50;4.20;;;;;;5002336;28;20179;-64
2022/08/04 12:21:36;;;;;;;8.20;3.57;;;32.80;4.10;;;;;;5008861;28;20206;-64
2022/08/04 12:24:15;;;;;;;7.80;3.50;;;33.00;3.90;;;;;;5009164;28;20175;-66
2022/08/04 12:26:49;;;;;;;8.53;3.50;;;33.10;3.40;;;;;;5009257;28;20206;-66
2022/08/04 12:29:17;;;;;;;6.87;3.80;;;33.20;2.70;;;;;;5008339;28;20171;-65
2022/08/04 12:31:54;;;;;;;8.87;4.20;;;33.30;2.90;;;;;;5008832;28;20187;-66
2022/08/04 12:34:33;;;;;;;4.90;3.10;;;33.40;2.60;;;;;;5007419;28;20164;-65
2022/08/04 12:37:21;;;;;;;4.27;3.10;;;33.40;1.90;;;;;;5008769;28;20259;-66
2022/08/04 12:39:49;;;;;;;7.73;3.30;;;33.20;1.00;;;;;;4990695;28;20171;-65
2022/08/04 12:42:18;;;;;;;7.07;4.33;;;33.20;1.00;;;;;;5008748;28;20178;-65
2022/08/04 12:44:48;;;;;;;23.63;4.73;;;33.30;1.00;;;;;;5009724;28;20203;-65
2022/08/04 12:47:16;;;;;;;8.50;4.07;;;33.30;1.00;;;;;;5009180;28;20218;-64
2022/08/04 12:49:46;;;;;;;8.33;4.20;;;33.40;1.00;;;;;;5009753;28;20167;-63
2022/08/04 12:52:15;;;;;;;70.23;9.00;;;33.50;1.00;;;;;;5008484;28;20221;-63
2022/08/04 12:54:44;;;;;;;16.23;5.43;;;33.50;1.00;;;;;;5002152;28;20263;-64
2022/08/04 12:57:11;;;;;;;3.07;2.77;;;33.50;1.00;;;;;;4996474;28;20203;-65
2022/08/04 12:59:42;;;;;;;4.67;3.10;;;33.60;1.00;;;;;;5009138;28;20180;-64
2022/08/04 13:02:15;;;;;;;18.53;4.43;;;33.50;1.00;;;;;;5007923;28;20168;-66
2022/08/04 13:04:42;;;;;;;14.50;4.30;;;33.30;1.00;;;;;;5007861;28;20651;-65
2022/08/04 13:07:18;;;;;;;7.70;3.43;;;33.20;1.00;;;;;;5008464;28;20676;-64
2022/08/04 13:09:45;;;;;;;24.07;5.37;;;33.20;1.00;;;;;;5008225;28;20174;-65
2022/08/04 13:12:20;;;;;;;4.87;3.57;;;33.30;1.00;;;;;;5008614;28;20171;-63
2022/08/04 13:14:50;;;;;;;12.97;4.40;;;33.40;1.00;;;;;;5008513;28;20167;-64
2022/08/04 13:17:16;;;;;;;3.90;3.10;;;33.50;1.00;;;;;;5007934;28;20195;-64
2022/08/04 13:19:47;;;;;;;9.27;3.73;;;33.50;1.00;;;;;;5008703;28;20182;-65
2022/08/04 13:22:22;;;;;;;33.50;6.40;;;33.70;1.00;;;;;;5008182;28;20179;-63
2022/08/04 13:24:50;;;;;;;11.37;3.73;;;33.70;1.00;;;;;;5002518;28;20203;-62
2022/08/04 13:27:18;;;;;;;9.43;3.70;;;33.60;1.00;;;;;;5008739;28;20199;-65
2022/08/04 13:29:45;;;;;;;5.03;3.70;;;33.50;1.00;;;;;;5008632;28;20259;-64
2022/08/04 13:32:17;;;;;;;8.00;3.17;;;33.40;1.00;;;;;;5008095;28;20675;-62
2022/08/04 13:34:44;;;;;;;4.13;3.57;;;33.30;1.00;;;;;;5002125;28;20555;-63
2022/08/04 13:37:12;;;;;;;13.43;3.87;;;33.20;1.00;;;;;;5007741;28;20278;-63
2022/08/04 13:39:43;;;;;;;11.40;4.40;;;33.40;1.00;;;;;;5008452;28;20171;-65